createdAt,value
2023-04-26T00:04:16.192Z,-68
2023-04-26T00:09:19.714Z,-69
2023-04-26T00:14:21.248Z,-68
2023-04-26T00:19:24.342Z,-66
2023-04-26T00:24:25.980Z,-65
2023-04-26T00:29:27.557Z,-65
2023-04-26T00:34:38.754Z,-66
2023-04-26T00:39:40.293Z,-69
2023-04-26T00:44:42.508Z,-67
2023-04-26T00:49:44.417Z,-65
2023-04-26T00:54:46.205Z,-68
2023-04-26T00:59:48.770Z,-67
2023-04-26T01:04:50.674Z,-69
2023-04-26T01:09:52.692Z,-68
2023-04-26T01:14:55.268Z,-67
2023-04-26T01:19:57.222Z,-67
2023-04-26T01:25:01.624Z,-65
2023-04-26T01:30:03.742Z,-66
2023-04-26T01:35:07.357Z,-65
2023-04-26T01:40:09.839Z,-67
2023-04-26T01:45:11.828Z,-66
2023-04-26T01:50:13.394Z,-66
2023-04-26T01:55:14.874Z,-66
2023-04-26T02:00:20.118Z,-66
2023-04-26T02:05:22.466Z,-66
2023-04-26T02:10:24.224Z,-66
2023-04-26T02:15:25.888Z,-67
2023-04-26T02:20:27.389Z,-65
2023-04-26T02:25:28.890Z,-67
2023-04-26T02:30:37.160Z,-67
2023-04-26T02:35:38.689Z,-66
2023-04-26T02:40:40.463Z,-66
2023-04-26T02:45:43.291Z,-65
2023-04-26T02:50:45.096Z,-67
2023-04-26T02:55:46.629Z,-66
2023-04-26T03:00:49.840Z,-66
2023-04-26T03:05:51.421Z,-65
2023-04-26T03:10:52.919Z,-64
2023-04-26T03:15:54.460Z,-67
2023-04-26T03:20:55.953Z,-67
2023-04-26T03:25:57.455Z,-65
2023-04-26T03:30:59.038Z,-67
2023-04-26T03:36:00.601Z,-67
2023-04-26T03:41:02.076Z,-67
2023-04-26T03:46:04.526Z,-65
2023-04-26T03:51:06.622Z,-64
2023-04-26T03:56:08.719Z,-67
2023-04-26T04:01:10.272Z,-67
2023-04-26T04:06:12.641Z,-66
2023-04-26T04:11:14.134Z,-65
2023-04-26T04:16:15.966Z,-65
2023-04-26T04:21:17.562Z,-68
2023-04-26T04:26:19.215Z,-64
2023-04-26T04:31:21.817Z,-67
2023-04-26T04:36:23.295Z,-67
2023-04-26T04:41:24.965Z,-66
2023-04-26T04:46:26.517Z,-71
2023-04-26T04:51:28.132Z,-63
2023-04-26T04:56:29.735Z,-62
2023-04-26T05:01:35.107Z,-64
2023-04-26T05:06:36.896Z,-61
2023-04-26T05:11:38.434Z,-62
2023-04-26T05:16:40.056Z,-59
2023-04-26T05:21:42.053Z,-61
2023-04-26T05:26:43.606Z,-68
2023-04-26T05:31:45.628Z,-65
2023-04-26T05:36:47.217Z,-63
2023-04-26T05:41:48.733Z,-63
2023-04-26T05:46:50.331Z,-63
2023-04-26T05:51:52.403Z,-62
2023-04-26T05:56:53.969Z,-66
2023-04-26T06:01:55.566Z,-68
2023-04-26T06:06:58.091Z,-66
2023-04-26T06:11:59.897Z,-67
2023-04-26T06:17:01.494Z,-70
2023-04-26T06:22:03.052Z,-68
2023-04-26T06:27:04.594Z,-68
2023-04-26T06:32:06.498Z,-68
2023-04-26T06:37:08.001Z,-67
2023-04-26T06:42:09.570Z,-66
2023-04-26T06:47:11.326Z,-67
2023-04-26T06:52:12.845Z,-67
2023-04-26T06:57:14.760Z,-69
2023-04-26T07:02:16.369Z,-68
2023-04-26T07:07:18.223Z,-66
2023-04-26T07:12:19.749Z,-68
2023-04-26T07:17:22.362Z,-69
2023-04-26T07:22:24.222Z,-69
2023-04-26T07:27:26.214Z,-64
2023-04-26T07:32:27.748Z,-68
2023-04-26T07:37:29.266Z,-69
2023-04-26T07:42:31.436Z,-67
2023-04-26T07:47:32.951Z,-69
2023-04-26T07:52:34.670Z,-68
2023-04-26T07:57:36.499Z,-66
2023-04-26T08:07:44.861Z,-66
2023-04-26T08:12:46.514Z,-68
2023-04-26T08:17:48.418Z,-70
2023-04-26T08:22:50.128Z,-68
2023-04-26T08:27:52.514Z,-68
2023-04-26T08:32:54.109Z,-68
2023-04-26T08:37:55.795Z,-65
2023-04-26T08:42:57.510Z,-67
2023-04-26T08:48:05.701Z,-68
2023-04-26T08:53:08.361Z,-63
2023-04-26T08:58:11.807Z,-64
2023-04-26T09:03:13.826Z,-67
2023-04-26T09:08:19.300Z,-67
2023-04-26T09:13:20.894Z,-68
2023-04-26T09:18:23.758Z,-67
2023-04-26T09:23:25.394Z,-66
2023-04-26T09:28:27.800Z,-66
2023-04-26T09:33:29.548Z,-67
2023-04-26T09:38:42.923Z,-66
2023-04-26T09:43:44.611Z,-65
2023-04-26T09:49:00.376Z,-66
2023-04-26T09:54:01.932Z,-68
2023-04-26T09:59:05.748Z,-65
2023-04-26T10:04:07.759Z,-65
2023-04-26T10:09:09.611Z,-65
2023-04-26T10:14:12.231Z,-65
2023-04-26T10:19:14.293Z,-66
2023-04-26T10:24:16.138Z,-68
2023-04-26T10:29:18.579Z,-63
2023-04-26T10:34:21.679Z,-66
2023-04-26T10:39:24.914Z,-66
2023-04-26T10:44:45.863Z,-67
2023-04-26T10:49:48.260Z,-68
2023-04-26T10:54:55.100Z,-66
2023-04-26T11:00:20.358Z,-65
2023-04-26T11:05:47.334Z,-69
2023-04-26T11:10:56.730Z,-69
2023-04-26T11:16:04.254Z,-71
2023-04-26T11:21:07.229Z,-64
2023-04-26T11:26:09.560Z,-69
2023-04-26T11:31:11.733Z,-69
2023-04-26T11:36:14.397Z,-64
2023-04-26T11:41:16.006Z,-69
2023-04-26T11:46:21.584Z,-68
2023-04-26T11:51:24.107Z,-69
2023-04-26T11:56:25.589Z,-66
2023-04-26T12:01:28.778Z,-71
2023-04-26T12:06:46.989Z,-68
2023-04-26T12:11:53.526Z,-66
2023-04-26T12:16:55.143Z,-70
2023-04-26T12:21:57.568Z,-68
2023-04-26T12:27:00.262Z,-67
2023-04-26T12:32:04.505Z,-67
2023-04-26T12:37:06.398Z,-66
2023-04-26T12:42:08.003Z,-65
2023-04-26T12:47:09.562Z,-65
2023-04-26T12:52:11.128Z,-65
2023-04-26T12:57:12.907Z,-65
2023-04-26T13:02:14.449Z,-67
2023-04-26T13:07:16.371Z,-66
2023-04-26T13:12:17.998Z,-67
2023-04-26T13:17:19.542Z,-65
2023-04-26T13:22:21.591Z,-65
2023-04-26T13:27:23.123Z,-67
2023-04-26T13:32:24.676Z,-65
2023-04-26T13:37:26.990Z,-64
2023-04-26T13:42:28.593Z,-62
2023-04-26T13:47:31.310Z,-74
2023-04-26T13:52:33.459Z,-68
2023-04-26T13:57:34.967Z,-64
2023-04-26T14:02:36.675Z,-63
2023-04-26T14:07:40.569Z,-77
2023-04-26T14:12:42.326Z,-74
2023-04-26T14:17:46.797Z,-72
2023-04-26T14:22:50.223Z,-65
2023-04-26T14:27:53.501Z,-75
2023-04-26T14:32:55.264Z,-68
2023-04-26T14:37:56.942Z,-74
2023-04-26T14:42:58.484Z,-66
2023-04-26T14:48:01.870Z,-65
2023-04-26T14:53:03.444Z,-65
2023-04-26T14:58:05.730Z,-66
2023-04-26T15:03:07.557Z,-62
2023-04-26T15:08:09.365Z,-66
2023-04-26T15:13:10.950Z,-66
2023-04-26T15:18:12.446Z,-67
2023-04-26T15:23:14.090Z,-68
2023-04-26T15:28:17.650Z,-66
2023-04-26T15:33:19.737Z,-65
2023-04-26T15:38:22.113Z,-66
2023-04-26T15:43:23.701Z,-65
2023-04-26T15:48:26.343Z,-65
2023-04-26T15:53:27.893Z,-66
2023-04-26T15:58:29.663Z,-65
2023-04-26T16:03:31.486Z,-66
2023-04-26T16:13:40.645Z,-69
2023-04-26T16:18:43.836Z,-69
2023-04-26T16:23:45.652Z,-66
2023-04-26T16:28:47.319Z,-71
2023-04-26T16:33:48.978Z,-68
2023-04-26T16:38:50.984Z,-60
2023-04-26T16:43:53.218Z,-62
2023-04-26T16:48:54.802Z,-60
2023-04-26T16:53:56.331Z,-62
2023-04-26T16:58:57.876Z,-61
2023-04-26T17:03:59.493Z,-60
2023-04-26T17:09:01.295Z,-61
2023-04-26T17:14:04.387Z,-61
2023-04-26T17:19:06.860Z,-61
2023-04-26T17:24:08.538Z,-64
2023-04-26T17:29:10.891Z,-62
2023-04-26T17:34:12.417Z,-60
2023-04-26T17:39:13.890Z,-62
2023-04-26T17:44:15.373Z,-59
2023-04-26T17:49:16.848Z,-72
2023-04-26T17:54:18.452Z,-66
2023-04-26T17:59:20.018Z,-68
2023-04-26T18:04:21.866Z,-61
2023-04-26T18:09:23.542Z,-66
2023-04-26T18:14:26.536Z,-60
2023-04-26T18:19:28.045Z,-58
2023-04-26T18:24:29.948Z,-59
2023-04-26T18:29:32.147Z,-59
2023-04-26T18:34:33.636Z,-60
2023-04-26T18:39:35.223Z,-60
2023-04-26T18:44:36.734Z,-61
2023-04-26T18:49:38.294Z,-65
2023-04-26T18:54:39.925Z,-58
2023-04-26T18:59:41.721Z,-59
2023-04-26T19:04:43.451Z,-61
2023-04-26T19:09:53.686Z,-59
2023-04-26T19:14:56.855Z,-62
2023-04-26T19:19:58.673Z,-62
2023-04-26T19:25:01.130Z,-60
2023-04-26T19:30:02.803Z,-59
2023-04-26T19:35:06.156Z,-60
2023-04-26T19:40:10.099Z,-64
2023-04-26T19:45:11.773Z,-62
2023-04-26T19:50:13.435Z,-64
2023-04-26T19:55:15.180Z,-60
2023-04-26T20:00:16.929Z,-60
2023-04-26T20:05:18.553Z,-62
2023-04-26T20:10:23.906Z,-61
2023-04-26T20:15:26.532Z,-59
2023-04-26T20:20:28.114Z,-63
2023-04-26T20:25:29.590Z,-62
2023-04-26T20:30:40.727Z,-62
2023-04-26T20:35:45.404Z,-61
2023-04-26T20:40:48.715Z,-61
2023-04-26T20:45:50.888Z,-62
2023-04-26T20:50:58.264Z,-62
2023-04-26T20:55:59.793Z,-61
2023-04-26T21:01:02.828Z,-62
2023-04-26T21:06:06.204Z,-61
2023-04-26T21:11:07.743Z,-62
2023-04-26T21:16:09.310Z,-63
2023-04-26T21:21:11.176Z,-62
2023-04-26T21:26:13.385Z,-61
2023-04-26T21:31:14.975Z,-62
2023-04-26T21:36:16.734Z,-61
2023-04-26T21:41:18.262Z,-61
2023-04-26T21:46:19.865Z,-60
2023-04-26T21:51:21.385Z,-60
2023-04-26T21:56:24.122Z,-62
2023-04-26T22:01:25.741Z,-64
2023-04-26T22:06:27.346Z,-63
2023-04-26T22:11:28.841Z,-63
2023-04-26T22:16:30.462Z,-62
2023-04-26T22:21:32.374Z,-61
2023-04-26T22:26:34.072Z,-62
2023-04-26T22:31:35.660Z,-62
2023-04-26T22:36:37.280Z,-64
2023-04-26T22:41:38.784Z,-62
2023-04-26T22:46:40.660Z,-63
2023-04-26T22:51:45.929Z,-62
2023-04-26T22:56:52.663Z,-62
2023-04-26T23:01:54.167Z,-62
2023-04-26T23:06:55.911Z,-61
2023-04-26T23:11:59.502Z,-61
2023-04-26T23:17:01.118Z,-61
2023-04-26T23:22:02.666Z,-62
2023-04-26T23:27:05.041Z,-61
2023-04-26T23:32:06.709Z,-62
2023-04-26T23:37:08.425Z,-61
2023-04-26T23:42:10.185Z,-62
2023-04-26T23:47:11.681Z,-63
2023-04-26T23:52:13.235Z,-63
2023-04-26T23:57:14.713Z,-61
